Wahpeton, MN

1:21 PM CST on December 08, 2019 (GMT -0600)
Stern

Weather History for KBWP - October, 2019

Change the Weather History Date:

Sunday, October 13, 2019

  Actual Average (KFFM) Record (KFFM)
Temperature  
Mean Temperature 36 °F -  
Max Temperature 39 °F 56 °F 80 °F (1956)
Min Temperature 32 °F 36 °F 16 °F (1986)
Degree Days  
Heating Degree Days 30    
Moisture  
Dew Point 31 °F    
Average Humidity 90    
Maximum Humidity 100    
Minimum Humidity 65    
Precipitation  
Precipitation 0.00 in - - ()
Sea Level Pressure  
Sea Level Pressure 29.81 in    
Wind  
Wind Speed 12 mph ()    
Max Wind Speed 18 mph    
Max Gust Speed 23 mph    
Visibility 9.4 miles    
Events      
Averages and records for this station are not official NWS values.
T = Trace of Precipitation, MM = Missing Value Source: Averaged Metar Reports

Daily Weather History Graph

Daily Weather History Graph

Search for Another Location

Airport or City:

Astronomy

Oct. 13, 2019 Rise Set
Actual Time 7:40 AM CDT 6:43 PM CDT
Civil Twilight 7:10 AM CDT 7:14 PM CDT
Nautical Twilight 6:35 AM CDT 7:48 PM CDT
Astronomical Twilight 6:00 AM CDT 8:23 PM CDT
Moon 7:09 PM CDT (10/13) 7:11 AM CDT (10/13)
Length of Visible Light 12h 03m
Length of Day
11h 03m
Full, 100% of the Moon is Illuminated
Oct 13
Full
Oct 13
Full
Oct 21
Last Quarter
Oct 27
New
Nov 4
First Quarter

Hourly Weather History & Observations

Time (CDT) Temp. Windchill Dew Point Humidity Pressure Visibility Wind Dir Wind Speed Gust Speed Precip Events Conditions
12:55 AM 32.0 °F 21.6 °F 32.0 °F 100% 29.65 in 10.0 mi WNW 15.0 mph 19.6 mph N/A   Unknown
1:15 AM 32.0 °F 21.6 °F 32.0 °F 100% 29.65 in 10.0 mi WNW 15.0 mph - N/A   Unknown
1:35 AM 32.0 °F 22.1 °F 32.0 °F 100% 29.66 in 10.0 mi WNW 13.8 mph 18.4 mph N/A   Unknown
1:55 AM 32.0 °F 22.1 °F 32.0 °F 100% 29.66 in 10.0 mi WNW 13.8 mph 18.4 mph N/A   Unknown
2:15 AM 33.8 °F 23.5 °F 32.0 °F 93% 29.67 in 10.0 mi WNW 16.1 mph - N/A   Unknown
2:35 AM 32.0 °F 22.5 °F 32.0 °F 100% 29.67 in 10.0 mi WNW 12.7 mph - N/A   Unknown
2:55 AM 32.0 °F 22.5 °F 32.0 °F 100% 29.68 in 10.0 mi WNW 12.7 mph - N/A   Unknown
3:15 AM 32.0 °F 22.5 °F 32.0 °F 100% 29.68 in 10.0 mi WNW 12.7 mph - N/A   Unknown
3:35 AM 32.0 °F 21.6 °F 32.0 °F 100% 29.68 in 10.0 mi WNW 15.0 mph - N/A   Unknown
3:55 AM 32.0 °F 22.1 °F 32.0 °F 100% 29.69 in 10.0 mi WNW 13.8 mph - N/A   Unknown
4:15 AM 32.0 °F 21.6 °F 32.0 °F 100% 29.69 in 10.0 mi WNW 15.0 mph - N/A   Unknown
4:35 AM 32.0 °F 22.1 °F 32.0 °F 100% 29.69 in 10.0 mi WNW 13.8 mph - N/A   Unknown
4:55 AM 32.0 °F 22.1 °F 30.2 °F 93% 29.70 in 10.0 mi WNW 13.8 mph 19.6 mph N/A   Unknown
5:15 AM 32.0 °F 21.6 °F 30.2 °F 93% 29.70 in 10.0 mi WNW 15.0 mph - N/A   Unknown
5:35 AM 32.0 °F 22.5 °F 30.2 °F 93% 29.70 in 10.0 mi WNW 12.7 mph - N/A   Unknown
5:55 AM 32.0 °F 23.0 °F 30.2 °F 93% 29.71 in 7.0 mi WNW 11.5 mph - N/A   Unknown
6:15 AM 32.0 °F 21.6 °F 30.2 °F 93% 29.71 in 10.0 mi WNW 15.0 mph - N/A   Unknown
6:35 AM 32.0 °F 21.6 °F 30.2 °F 93% 29.72 in 3.0 mi WNW 15.0 mph - N/A   Unknown
6:55 AM 32.0 °F 23.0 °F 32.0 °F 100% 29.72 in 5.0 mi WNW 11.5 mph - N/A   Unknown
7:15 AM 32.0 °F 21.6 °F 30.2 °F 93% 29.73 in 4.0 mi WNW 15.0 mph - N/A   Unknown
7:35 AM 32.0 °F 22.5 °F 30.2 °F 93% 29.73 in 4.0 mi WNW 12.7 mph - N/A   Unknown
7:55 AM 32.0 °F 22.5 °F 30.2 °F 93% 29.73 in 7.0 mi WNW 12.7 mph 17.3 mph N/A   Unknown
8:15 AM 32.0 °F 22.5 °F 32.0 °F 100% 29.74 in 7.0 mi WNW 12.7 mph - N/A   Unknown
8:35 AM 32.0 °F 21.6 °F 32.0 °F 100% 29.74 in 10.0 mi WNW 15.0 mph - N/A   Unknown
8:55 AM 32.0 °F 21.6 °F 32.0 °F 100% 29.76 in 10.0 mi WNW 15.0 mph 20.7 mph N/A   Unknown
9:15 AM 32.0 °F 21.6 °F 32.0 °F 100% 29.76 in 10.0 mi WNW 15.0 mph 20.7 mph N/A   Unknown
9:35 AM 32.0 °F 21.2 °F 32.0 °F 100% 29.77 in 7.0 mi WNW 16.1 mph 23.0 mph N/A   Unknown
9:55 AM 33.8 °F 23.5 °F 32.0 °F 93% 29.78 in 2.5 mi NW 16.1 mph 21.9 mph N/A   Unknown
10:15 AM 33.8 °F 24.3 °F 32.0 °F 93% 29.78 in 10.0 mi NW 13.8 mph - N/A   Unknown
10:35 AM 33.8 °F 24.3 °F 32.0 °F 93% 29.79 in 10.0 mi NW 13.8 mph 23.0 mph N/A   Unknown
10:55 AM 35.6 °F 26.2 °F 32.0 °F 87% 29.79 in 10.0 mi NW 15.0 mph 18.4 mph N/A   Unknown
11:15 AM 35.6 °F 26.2 °F 32.0 °F 87% 29.80 in 10.0 mi NW 15.0 mph 19.6 mph N/A   Unknown
11:35 AM 35.6 °F 26.6 °F 32.0 °F 87% 29.81 in 10.0 mi NW 13.8 mph 20.7 mph N/A   Unknown
11:55 AM 35.6 °F 26.2 °F 32.0 °F 87% 29.81 in 10.0 mi NNW 15.0 mph 19.6 mph N/A   Unknown
12:15 PM 35.6 °F 26.2 °F 32.0 °F 87% 29.81 in 10.0 mi NW 15.0 mph - N/A   Unknown
12:35 PM 35.6 °F 25.2 °F 32.0 °F 87% 29.82 in 10.0 mi NW 18.4 mph 21.9 mph N/A   Unknown
12:55 PM 35.6 °F 25.9 °F 32.0 °F 87% 29.82 in 10.0 mi NW 16.1 mph - N/A   Unknown
1:15 PM 37.4 °F 28.9 °F 32.0 °F 81% 29.83 in 10.0 mi NW 13.8 mph - N/A   Unknown
1:35 PM 37.4 °F 27.8 °F 32.0 °F 81% 29.83 in 10.0 mi WNW 17.3 mph 20.7 mph N/A   Unknown
1:55 PM 37.4 °F 29.3 °F 32.0 °F 81% 29.84 in 10.0 mi WNW 12.7 mph - N/A   Unknown
2:15 PM 37.4 °F 28.5 °F 32.0 °F 81% 29.84 in 10.0 mi WNW 15.0 mph - N/A   Unknown
2:35 PM 37.4 °F 28.9 °F 32.0 °F 81% 29.84 in 10.0 mi WNW 13.8 mph - N/A   Unknown
2:55 PM 39.2 °F 32.5 °F 32.0 °F 75% 29.84 in 10.0 mi NW 10.4 mph - N/A   Unknown
3:15 PM 37.4 °F 29.3 °F 30.2 °F 75% 29.84 in 10.0 mi NW 12.7 mph - N/A   Unknown
3:35 PM 37.4 °F 29.3 °F 30.2 °F 75% 29.85 in 10.0 mi NW 12.7 mph 21.9 mph N/A   Unknown
3:55 PM 37.4 °F 28.9 °F 30.2 °F 75% 29.86 in 10.0 mi NW 13.8 mph - N/A   Unknown
4:15 PM 39.2 °F 31.2 °F 30.2 °F 70% 29.86 in 10.0 mi NW 13.8 mph - N/A   Unknown
4:35 PM 39.2 °F 30.5 °F 28.4 °F 65% 29.87 in 10.0 mi WNW 16.1 mph - N/A   Unknown
4:55 PM 37.4 °F 28.9 °F 30.2 °F 75% 29.87 in 10.0 mi NW 13.8 mph - N/A   Unknown
5:15 PM 37.4 °F 29.8 °F 30.2 °F 75% 29.87 in 10.0 mi NW 11.5 mph - N/A   Unknown
5:35 PM 37.4 °F 29.3 °F 30.2 °F 75% 29.88 in 10.0 mi WNW 12.7 mph - N/A   Unknown
5:55 PM 37.4 °F 31.4 °F 30.2 °F 75% 29.89 in 10.0 mi WNW 8.1 mph - N/A   Unknown
6:15 PM 37.4 °F 30.3 °F 30.2 °F 75% 29.90 in 10.0 mi WNW 10.4 mph - N/A   Unknown
6:35 PM 37.4 °F 28.9 °F 30.2 °F 75% 29.90 in 10.0 mi WNW 13.8 mph 18.4 mph N/A   Unknown
6:55 PM 35.6 °F 28.6 °F 30.2 °F 81% 29.91 in 10.0 mi WNW 9.2 mph - N/A   Unknown
7:15 PM 33.8 °F 27.0 °F 30.2 °F 87% 29.92 in 10.0 mi WNW 8.1 mph - N/A   Unknown
7:35 PM 33.8 °F 27.0 °F 32.0 °F 93% 29.93 in 10.0 mi West 8.1 mph - N/A   Unknown
7:55 PM 33.8 °F 27.0 °F 30.2 °F 87% 29.94 in 10.0 mi WNW 8.1 mph - N/A   Unknown
8:15 PM 33.8 °F 28.6 °F 32.0 °F 93% 29.94 in 10.0 mi WNW 5.8 mph - N/A   Unknown
8:35 PM 33.8 °F 27.0 °F 32.0 °F 93% 29.94 in 10.0 mi WNW 8.1 mph - N/A   Unknown
8:55 PM 33.8 °F 27.7 °F 32.0 °F 93% 29.94 in 10.0 mi West 6.9 mph - N/A   Unknown
9:15 PM 33.8 °F 28.6 °F 32.0 °F 93% 29.94 in 10.0 mi West 5.8 mph - N/A   Unknown
9:35 PM 33.8 °F 28.6 °F 32.0 °F 93% 29.94 in 10.0 mi West 5.8 mph - N/A   Unknown
9:55 PM 33.8 °F 27.7 °F 32.0 °F 93% 29.95 in 10.0 mi West 6.9 mph - N/A   Unknown
10:15 PM 33.8 °F 28.6 °F 32.0 °F 93% 29.95 in 10.0 mi WNW 5.8 mph - N/A   Unknown
10:35 PM 33.8 °F 28.6 °F 32.0 °F 93% 29.94 in 10.0 mi WNW 5.8 mph - N/A   Unknown
10:55 PM 33.8 °F 29.6 °F 32.0 °F 93% 29.95 in 10.0 mi West 4.6 mph - N/A   Unknown
11:15 PM 33.8 °F 28.6 °F 32.0 °F 93% 29.95 in 10.0 mi WSW 5.8 mph - N/A   Unknown
11:35 PM 33.8 °F 29.6 °F 32.0 °F 93% 29.95 in 10.0 mi WSW 4.6 mph - N/A   Unknown
11:55 PM 33.8 °F 28.6 °F 32.0 °F 93% 29.95 in 10.0 mi WSW 5.8 mph - N/A   Unknown